ADDS METAR Data INFO
IDs: Format: Raw Decoded Include TAF

Data at: 1924 UTC 19 Jul 2018

KASH 191856Z 34004KT 10SM CLR 27/09 A3007 RMK AO2 SLP191 T02670094
KASH 191756Z 29006KT 10SM CLR 26/09 A3009 RMK AO2 SLP197 T02610089 10261 20167 58007
KASH 191656Z 00000KT 10SM CLR 25/08 A3009 RMK AO2 SLP200 T02500083
KASH 191556Z 00000KT 10SM CLR 24/09 A3010 RMK AO2 SLP201 T02390089
KASH 191456Z 02006KT 10SM CLR 23/09 A3011 RMK AO2 SLP204 T02330089 53004
KASH 191356Z 00000KT 10SM CLR 22/11 A3010 RMK AO2 SLP203 T02170106
KASH 191256Z 00000KT 10SM CLR 19/11 A3009 RMK AO2 SLP199 T01940106
KASH 191156Z 31004KT 10SM CLR 17/11 A3009 RMK AO2 SLP200 P0001 60001 70002 T01670106 10167 20111 51013
KASH 191056Z 30004KT 10SM CLR 14/11 A3009 RMK AO2 SLP197 T01390111
KASH 190956Z AUTO 29003KT 10SM CLR 11/10 A3008 RMK AO2 SLP194 T01110100
KASH 190856Z AUTO 30004KT 10SM CLR 12/10 A3006 RMK AO2 SLP187 T01170100 53010
KASH 190756Z AUTO 31004KT 10SM CLR 12/11 A3004 RMK AO2 SLP181 T01170106
KASH 190656Z AUTO 30006KT 10SM CLR 13/11 A3003 RMK AO2 SLP179 T01330111
KASH 190556Z AUTO 30005KT 10SM CLR 13/12 A3003 RMK AO2 SLP177 T01330117 10233 20133 53013
KASH 190456Z AUTO 29005KT 10SM CLR 14/12 A3001 RMK AO2 SLP171 T01440122
KASH 190356Z AUTO 31005KT 10SM CLR 16/13 A3000 RMK AO2 SLP167 T01560128 402670156
KASH 190256Z AUTO 29004KT 10SM CLR 16/13 A2999 RMK AO2 SLP163 T01610133 51021
KASH 190156Z AUTO 31004KT 10SM CLR 17/13 A2997 RMK AO2 SLP159 T01720133
KASH 190056Z 30003KT 10SM CLR 19/13 A2995 RMK AO2 SLP150 T01940133
KASH 182356Z 32004KT 10SM CLR 23/12 A2992 RMK AO2 SLP142 T02330117 10267 20233 53013
KASH 182256Z 34006KT 10SM CLR 25/10 A2991 RMK AO2 SLP135 T02500100
KASH 182156Z 31012KT 10SM CLR 26/09 A2989 RMK AO2 SLP130 T02610089
KASH 182056Z 34010G17KT 10SM CLR 26/09 A2989 RMK AO2 SLP128 T02610094 51003
KASH 181956Z 34009KT 10SM FEW060 26/10 A2989 RMK AO2 SLP128 T02610100
KASH 181856Z 32013G17KT 10SM CLR 26/09 A2989 RMK AO2 SLP129 T02560094
KASH 181756Z 33011G15KT 10SM FEW065 26/12 A2988 RMK AO2 SLP125 60001 T02560122 10256 20200 56008
KASH 181656Z 34007G15KT 10SM FEW030 25/13 A2988 RMK AO2 SLP127 T02500128
KASH 181556Z COR 34008G18KT 310V010 10SM FEW030 24/13 A2989 RMK AO2 SLP129 T02390128
KASH 181456Z 34009KT 10SM FEW030 23/14 A2990 RMK AO2 SLP133 60001 T02280144 50003
KASH 181356Z 32013KT 10SM FEW030 22/14 A2991 RMK AO2 SLP135 P0001 T02220144
KASH 181256Z 32009G16KT 10SM FEW030 SCT100 21/16 A2990 RMK AO2 SLP134 T02110161
KASH 181156Z 34009KT 10SM SCT090 20/17 A2989 RMK AO2 SLP129 P0001 60006 70095 T02000167 10206 20194 51023
KASH 181056Z 32009KT 10SM SCT085 19/18 A2987 RMK AO2 SLP123 P0001 T01940178
KASH 180956Z AUTO 30007KT 10SM SCT080 20/19 A2985 RMK AO2 SLP116 T02000189
KASH 180856Z AUTO 31009KT 10SM OVC110 21/19 A2982 RMK AO2 SLP107 P0001 60004 T02060194 53017
KASH 180756Z AUTO 31003KT 10SM BKN110 21/21 A2979 RMK AO2 SLP096 P0002 T02060206